MSC Clorinda — 3FDW7 — position and weather

sailwx.info

Track history (hours):
 
Tides and Currents Weather Stations Pressure Air Temp Water Temp Dewpoint Dewpoint Depression Visibility Wind Speed Wind Dir Waves Ship Positions

MSC Clorinda

Last reported at 2015-Sep-02 05:19 UTC. Time now 2015-Sep-04 23:10 UTC.
Position N 30°58' E 032°19'.

Length 366 m; draft 12.7 m.

Type: Ship (hazmat cat A). MMSI: 373233000.

Date/timePositionNaut miles runAvg speedWind from/ knotsBaromVisibWave heightAir tempDewpointWater temp
2015-Sep-02 05:19N 30°58' E 032°19'24 8.6
2015-Sep-02 02:32N 31°21' E 032°23'5 5.0
2015-Sep-02 01:32N 31°25' E 032°19'1 0.2
2015-Sep-01 22:32N 31°25' E 032°18'0 0.0
2015-Sep-01 21:33N 31°25' E 032°18'0 0.0
2015-Sep-01 20:18N 31°25' E 032°18'0 0.0
2015-Sep-01 19:33N 31°25' E 032°18'0 0.0
2015-Sep-01 18:33N 31°25' E 032°18'0 0.0
2015-Sep-01 17:33N 31°25' E 032°18'0 0.1
2015-Sep-01 16:29N 31°25' E 032°18'7 7.4
2015-Sep-01 15:34N 31°30' E 032°13'1615.6
2015-Sep-01 14:34N 31°42' E 032°01'1616.4
2015-Sep-01 13:34N 31°50' E 031°44'1716.6
2015-Sep-01 12:32N 31°57' E 031°26'1616.4
2015-Sep-01 11:33N 32°02' E 031°08'1716.4
2015-Sep-01 10:32N 32°05' E 030°48'1616.4
2015-Sep-01 09:33N 32°09' E 030°30'1616.4
2015-Sep-01 08:34N 32°14' E 030°11'1917.6
2015-Sep-01 07:29N 32°18' E 029°50'1920.7
2015-Sep-01 06:33N 32°24' E 029°28'1918.7
2015-Sep-01 05:33N 32°29' E 029°07'1818.0
2015-Sep-01 04:33N 32°33' E 028°46'1818.1
2015-Sep-01 03:34N 32°37' E 028°25'1818.1
2015-Sep-01 02:33N 32°43' E 028°04'2517.8
2015-Sep-01 01:07N 32°50' E 027°35'1217.8
2015-Sep-01 00:28N 32°53' E 027°22'1618.0
2015-Aug-31 23:33N 32°57' E 027°03'3718.3
2015-Aug-31 21:32N 33°07' E 026°20'59117.7
2015-Aug-30 12:15N 35°44' E 014°50'1115.1
2015-Aug-30 11:33N 35°46' E 014°37'5 0.2
2015-Aug-29 11:17N 35°49' E 014°33'3 4.0
2015-Aug-29 10:33N 35°47' E 014°35'2 2.1
2015-Aug-29 09:33N 35°46' E 014°37'1 0.8
2015-Aug-29 08:33N 35°46' E 014°36'8 6.1
2015-Aug-29 07:16N 35°45' E 014°26'912.6
2015-Aug-29 06:33N 35°47' E 014°16'1413.8
2015-Aug-29 05:34N 35°54' E 014°01'1413.9
2015-Aug-29 04:33N 36°02' E 013°46'1413.7
2015-Aug-29 03:33N 36°09' E 013°32'1413.5
2015-Aug-29 02:33N 36°16' E 013°18'1515.3
2015-Aug-29 01:33N 36°24' E 013°02'1615.9
2015-Aug-29 00:33N 36°32' E 012°45'1615.9
2015-Aug-28 23:33N 36°40' E 012°28'1616.2
2015-Aug-28 22:32N 36°49' E 012°10'3716.0
2015-Aug-28 20:15N 37°10' E 011°32'3115.4
2015-Aug-28 18:14N 37°25' E 010°58'1215.5
2015-Aug-28 17:26N 37°28' E 010°43'1415.3
2015-Aug-28 16:32N 37°31' E 010°26'4515.2
2015-Aug-28 13:33N 37°35' E 009°29'3115.5
2015-Aug-28 11:33N 37°50' E 008°55'12417.1
2015-Aug-28 04:18N 38°20' E 006°22'1818.1
2015-Aug-28 03:19N 38°25' E 006°00'1418.3
2015-Aug-28 02:33N 38°28' E 005°43'1818.4
2015-Aug-28 01:33N 38°33' E 005°20'2518.5
2015-Aug-28 00:12N 38°39' E 004°49'1318.6
2015-Aug-27 23:29N 38°42' E 004°33'1718.6
2015-Aug-27 22:33N 38°46' E 004°11'1918.4
2015-Aug-27 21:33N 38°51' E 003°48'1818.5
2015-Aug-27 20:33N 38°55' E 003°25'1918.7
2015-Aug-27 19:33N 38°59' E 003°02'1918.6
2015-Aug-27 18:33N 39°03' E 002°38'1918.7
2015-Aug-27 17:33N 39°06' E 002°14'1918.7
2015-Aug-27 16:33N 39°09' E 001°51'1818.5
2015-Aug-27 15:33N 39°12' E 001°27'1717.3
2015-Aug-27 14:33N 39°15' E 001°05'3815.7
2015-Aug-27 12:09N 39°21' E 000°17'2414.8
2015-Aug-27 10:34N 39°24' W 000°13'5 4.9
2015-Aug-27 09:31N 39°26' W 000°19'0 0.0
2015-Aug-27 08:31N 39°26' W 000°19'0 0.0
2015-Aug-27 07:31N 39°26' W 000°19'0 0.0
2015-Aug-27 06:31N 39°26' W 000°19'0 0.0
2015-Aug-27 05:31N 39°26' W 000°19'0 0.0
2015-Aug-27 04:31N 39°26' W 000°19'0 0.0
2015-Aug-27 03:31N 39°26' W 000°19'0 0.0
2015-Aug-27 02:31N 39°26' W 000°19'0 0.0
2015-Aug-27 01:31N 39°26' W 000°19'0 0.0
2015-Aug-27 00:28N 39°26' W 000°19'0 0.0
2015-Aug-26 23:28N 39°26' W 000°19'0 0.0
2015-Aug-26 21:19N 39°26' W 000°19'0 0.0
2015-Aug-26 20:31N 39°26' W 000°19'0 0.0
2015-Aug-26 19:31N 39°26' W 000°19'0 0.0
2015-Aug-26 18:25N 39°26' W 000°19'0 0.0
2015-Aug-26 17:31N 39°26' W 000°19'0 0.0
2015-Aug-26 16:31N 39°26' W 000°19'0 0.0
2015-Aug-26 15:31N 39°26' W 000°19'0 0.0
2015-Aug-26 14:31N 39°26' W 000°19'0 0.0
2015-Aug-26 13:31N 39°26' W 000°19'0 0.0
2015-Aug-26 12:28N 39°26' W 000°19'0 0.0
2015-Aug-26 11:31N 39°26' W 000°19'0 0.0
2015-Aug-26 10:31N 39°26' W 000°19'0 0.0
2015-Aug-26 09:28N 39°26' W 000°19'0 0.0
2015-Aug-26 08:33N 39°26' W 000°19'0 0.0
2015-Aug-26 07:33N 39°26' W 000°19'0 0.0
2015-Aug-26 06:33N 39°26' W 000°19'0 0.0
2015-Aug-26 05:33N 39°26' W 000°19'0 0.2
2015-Aug-26 04:33N 39°26' W 000°19'5 4.7
2015-Aug-26 03:33N 39°27' W 000°13'1413.1
2015-Aug-26 02:29N 39°37' W 000°00'4020.3
2015-Aug-26 00:32N 40°04' E 000°37'1919.7
2015-Aug-25 23:33N 40°17' E 000°56'2019.8
2015-Aug-25 22:33N 40°31' E 001°15'2019.9
2015-Aug-25 21:33N 40°44' E 001°34'2019.9
2015-Aug-25 20:33N 40°59' E 001°51'2019.6
2015-Aug-25 19:33N 41°14' E 002°08'4 4.1
2015-Aug-25 18:29N 41°18' E 002°09'0 0.0
2015-Aug-25 17:23N 41°18' E 002°09'0 0.0
2015-Aug-25 16:11N 41°18' E 002°09'5 0.4
2015-Aug-25 02:30N 41°16' E 002°14'9 8.8
2015-Aug-25 01:28N 41°15' E 002°26'8 8.8
2015-Aug-25 00:32N 41°19' E 002°36'13911.5
2015-Aug-24 12:29N 42°57' E 004°48'1314.5
2015-Aug-24 11:33N 43°08' E 004°58'1313.3
2015-Aug-24 10:33N 43°22' E 004°58'6 6.3
2015-Aug-24 09:32N 43°25' E 004°50'0 0.0
2015-Aug-24 08:32N 43°25' E 004°50'0 0.0
2015-Aug-24 07:32N 43°25' E 004°50'0 0.0
2015-Aug-24 06:32N 43°25' E 004°50'0 0.0
2015-Aug-24 05:29N 43°25' E 004°50'0 0.0
2015-Aug-24 04:29N 43°25' E 004°50'0 0.0
2015-Aug-24 03:32N 43°25' E 004°50'0 0.0
2015-Aug-24 02:29N 43°25' E 004°50'0 0.0
2015-Aug-24 01:32N 43°25' E 004°50'0 0.0
2015-Aug-24 00:32N 43°25' E 004°50'0 0.0
2015-Aug-23 23:32N 43°25' E 004°50'0 0.0
2015-Aug-23 22:32N 43°25' E 004°50'0 0.0
2015-Aug-23 21:32N 43°25' E 004°50'0 0.0
2015-Aug-23 20:32N 43°25' E 004°50'0 0.0
2015-Aug-23 19:32N 43°25' E 004°50'0 0.0
2015-Aug-23 18:32N 43°25' E 004°50'0 0.0
2015-Aug-23 17:32N 43°25' E 004°50'0 0.0
2015-Aug-23 16:29N 43°25' E 004°50'0 0.0
2015-Aug-23 15:32N 43°25' E 004°50'0 0.0
2015-Aug-23 14:32N 43°25' E 004°50'0 0.0
2015-Aug-23 13:32N 43°25' E 004°50'0 0.0
2015-Aug-23 12:32N 43°25' E 004°50'0 0.0
2015-Aug-23 11:32N 43°25' E 004°50'0 0.0
2015-Aug-23 10:32N 43°25' E 004°50'0 0.0
2015-Aug-23 09:29N 43°25' E 004°50'0 0.0
2015-Aug-23 08:32N 43°25' E 004°50'0 0.0
2015-Aug-23 07:32N 43°25' E 004°50'0 0.0
2015-Aug-23 06:32N 43°25' E 004°50'0 0.0
2015-Aug-23 05:32N 43°25' E 004°50'  
Track history (hours):
 
Tides and Currents Weather Stations Pressure Air Temp Water Temp Dewpoint Dewpoint Depression Visibility Wind Speed Wind Dir Waves Ship Positions

MSC Clorinda

Last reported at 2015-Sep-02 05:19 UTC. Time now 2015-Sep-04 23:10 UTC.
Position N 30°58' E 032°19'.

Length 366 m; draft 12.7 m.

Type: Ship (hazmat cat A). MMSI: 373233000.

Date/timePositionNaut miles runAvg speedWind from/ knotsBaromVisibWave heightAir tempDewpointWater temp
2015-Sep-02 05:19N 30°58' E 032°19'24 8.6
2015-Sep-02 02:32N 31°21' E 032°23'5 5.0
2015-Sep-02 01:32N 31°25' E 032°19'1 0.2
2015-Sep-01 22:32N 31°25' E 032°18'0 0.0
2015-Sep-01 21:33N 31°25' E 032°18'0 0.0
2015-Sep-01 20:18N 31°25' E 032°18'0 0.0
2015-Sep-01 19:33N 31°25' E 032°18'0 0.0
2015-Sep-01 18:33N 31°25' E 032°18'0 0.0
2015-Sep-01 17:33N 31°25' E 032°18'0 0.1
2015-Sep-01 16:29N 31°25' E 032°18'7 7.4
2015-Sep-01 15:34N 31°30' E 032°13'1615.6
2015-Sep-01 14:34N 31°42' E 032°01'1616.4
2015-Sep-01 13:34N 31°50' E 031°44'1716.6
2015-Sep-01 12:32N 31°57' E 031°26'1616.4
2015-Sep-01 11:33N 32°02' E 031°08'1716.4
2015-Sep-01 10:32N 32°05' E 030°48'1616.4
2015-Sep-01 09:33N 32°09' E 030°30'1616.4
2015-Sep-01 08:34N 32°14' E 030°11'1917.6
2015-Sep-01 07:29N 32°18' E 029°50'1920.7
2015-Sep-01 06:33N 32°24' E 029°28'1918.7
2015-Sep-01 05:33N 32°29' E 029°07'1818.0
2015-Sep-01 04:33N 32°33' E 028°46'1818.1
2015-Sep-01 03:34N 32°37' E 028°25'1818.1
2015-Sep-01 02:33N 32°43' E 028°04'2517.8
2015-Sep-01 01:07N 32°50' E 027°35'1217.8
2015-Sep-01 00:28N 32°53' E 027°22'1618.0
2015-Aug-31 23:33N 32°57' E 027°03'3718.3
2015-Aug-31 21:32N 33°07' E 026°20'59117.7
2015-Aug-30 12:15N 35°44' E 014°50'1115.1
2015-Aug-30 11:33N 35°46' E 014°37'5 0.2
2015-Aug-29 11:17N 35°49' E 014°33'3 4.0
2015-Aug-29 10:33N 35°47' E 014°35'2 2.1
2015-Aug-29 09:33N 35°46' E 014°37'1 0.8
2015-Aug-29 08:33N 35°46' E 014°36'8 6.1
2015-Aug-29 07:16N 35°45' E 014°26'912.6
2015-Aug-29 06:33N 35°47' E 014°16'1413.8
2015-Aug-29 05:34N 35°54' E 014°01'1413.9
2015-Aug-29 04:33N 36°02' E 013°46'1413.7
2015-Aug-29 03:33N 36°09' E 013°32'1413.5
2015-Aug-29 02:33N 36°16' E 013°18'1515.3
2015-Aug-29 01:33N 36°24' E 013°02'1615.9
2015-Aug-29 00:33N 36°32' E 012°45'1615.9
2015-Aug-28 23:33N 36°40' E 012°28'1616.2
2015-Aug-28 22:32N 36°49' E 012°10'3716.0
2015-Aug-28 20:15N 37°10' E 011°32'3115.4
2015-Aug-28 18:14N 37°25' E 010°58'1215.5
2015-Aug-28 17:26N 37°28' E 010°43'1415.3
2015-Aug-28 16:32N 37°31' E 010°26'4515.2
2015-Aug-28 13:33N 37°35' E 009°29'3115.5
2015-Aug-28 11:33N 37°50' E 008°55'12417.1
2015-Aug-28 04:18N 38°20' E 006°22'1818.1
2015-Aug-28 03:19N 38°25' E 006°00'1418.3
2015-Aug-28 02:33N 38°28' E 005°43'1818.4
2015-Aug-28 01:33N 38°33' E 005°20'2518.5
2015-Aug-28 00:12N 38°39' E 004°49'1318.6
2015-Aug-27 23:29N 38°42' E 004°33'1718.6
2015-Aug-27 22:33N 38°46' E 004°11'1918.4
2015-Aug-27 21:33N 38°51' E 003°48'1818.5
2015-Aug-27 20:33N 38°55' E 003°25'1918.7
2015-Aug-27 19:33N 38°59' E 003°02'1918.6
2015-Aug-27 18:33N 39°03' E 002°38'1918.7
2015-Aug-27 17:33N 39°06' E 002°14'1918.7
2015-Aug-27 16:33N 39°09' E 001°51'1818.5
2015-Aug-27 15:33N 39°12' E 001°27'1717.3
2015-Aug-27 14:33N 39°15' E 001°05'3815.7
2015-Aug-27 12:09N 39°21' E 000°17'2414.8
2015-Aug-27 10:34N 39°24' W 000°13'5 4.9
2015-Aug-27 09:31N 39°26' W 000°19'0 0.0
2015-Aug-27 08:31N 39°26' W 000°19'0 0.0
2015-Aug-27 07:31N 39°26' W 000°19'0 0.0
2015-Aug-27 06:31N 39°26' W 000°19'0 0.0
2015-Aug-27 05:31N 39°26' W 000°19'0 0.0
2015-Aug-27 04:31N 39°26' W 000°19'0 0.0
2015-Aug-27 03:31N 39°26' W 000°19'0 0.0
2015-Aug-27 02:31N 39°26' W 000°19'0 0.0
2015-Aug-27 01:31N 39°26' W 000°19'0 0.0
2015-Aug-27 00:28N 39°26' W 000°19'0 0.0
2015-Aug-26 23:28N 39°26' W 000°19'0 0.0
2015-Aug-26 21:19N 39°26' W 000°19'0 0.0
2015-Aug-26 20:31N 39°26' W 000°19'0 0.0
2015-Aug-26 19:31N 39°26' W 000°19'0 0.0
2015-Aug-26 18:25N 39°26' W 000°19'0 0.0
2015-Aug-26 17:31N 39°26' W 000°19'0 0.0
2015-Aug-26 16:31N 39°26' W 000°19'0 0.0
2015-Aug-26 15:31N 39°26' W 000°19'0 0.0
2015-Aug-26 14:31N 39°26' W 000°19'0 0.0
2015-Aug-26 13:31N 39°26' W 000°19'0 0.0
2015-Aug-26 12:28N 39°26' W 000°19'0 0.0
2015-Aug-26 11:31N 39°26' W 000°19'0 0.0
2015-Aug-26 10:31N 39°26' W 000°19'0 0.0
2015-Aug-26 09:28N 39°26' W 000°19'0 0.0
2015-Aug-26 08:33N 39°26' W 000°19'0 0.0
2015-Aug-26 07:33N 39°26' W 000°19'0 0.0
2015-Aug-26 06:33N 39°26' W 000°19'0 0.0
2015-Aug-26 05:33N 39°26' W 000°19'0 0.2
2015-Aug-26 04:33N 39°26' W 000°19'5 4.7
2015-Aug-26 03:33N 39°27' W 000°13'1413.1
2015-Aug-26 02:29N 39°37' W 000°00'4020.3
2015-Aug-26 00:32N 40°04' E 000°37'1919.7
2015-Aug-25 23:33N 40°17' E 000°56'2019.8
2015-Aug-25 22:33N 40°31' E 001°15'2019.9
2015-Aug-25 21:33N 40°44' E 001°34'2019.9
2015-Aug-25 20:33N 40°59' E 001°51'2019.6
2015-Aug-25 19:33N 41°14' E 002°08'4 4.1
2015-Aug-25 18:29N 41°18' E 002°09'0 0.0
2015-Aug-25 17:23N 41°18' E 002°09'0 0.0
2015-Aug-25 16:11N 41°18' E 002°09'5 0.4
2015-Aug-25 02:30N 41°16' E 002°14'9 8.8
2015-Aug-25 01:28N 41°15' E 002°26'8 8.8
2015-Aug-25 00:32N 41°19' E 002°36'13911.5
2015-Aug-24 12:29N 42°57' E 004°48'1314.5
2015-Aug-24 11:33N 43°08' E 004°58'1313.3
2015-Aug-24 10:33N 43°22' E 004°58'6 6.3
2015-Aug-24 09:32N 43°25' E 004°50'0 0.0
2015-Aug-24 08:32N 43°25' E 004°50'0 0.0
2015-Aug-24 07:32N 43°25' E 004°50'0 0.0
2015-Aug-24 06:32N 43°25' E 004°50'0 0.0
2015-Aug-24 05:29N 43°25' E 004°50'0 0.0
2015-Aug-24 04:29N 43°25' E 004°50'0 0.0
2015-Aug-24 03:32N 43°25' E 004°50'0 0.0
2015-Aug-24 02:29N 43°25' E 004°50'0 0.0
2015-Aug-24 01:32N 43°25' E 004°50'0 0.0
2015-Aug-24 00:32N 43°25' E 004°50'0 0.0
2015-Aug-23 23:32N 43°25' E 004°50'0 0.0
2015-Aug-23 22:32N 43°25' E 004°50'0 0.0
2015-Aug-23 21:32N 43°25' E 004°50'0 0.0
2015-Aug-23 20:32N 43°25' E 004°50'0 0.0
2015-Aug-23 19:32N 43°25' E 004°50'0 0.0
2015-Aug-23 18:32N 43°25' E 004°50'0 0.0
2015-Aug-23 17:32N 43°25' E 004°50'0 0.0
2015-Aug-23 16:29N 43°25' E 004°50'0 0.0
2015-Aug-23 15:32N 43°25' E 004°50'0 0.0
2015-Aug-23 14:32N 43°25' E 004°50'0 0.0
2015-Aug-23 13:32N 43°25' E 004°50'0 0.0
2015-Aug-23 12:32N 43°25' E 004°50'0 0.0
2015-Aug-23 11:32N 43°25' E 004°50'0 0.0
2015-Aug-23 10:32N 43°25' E 004°50'0 0.0
2015-Aug-23 09:29N 43°25' E 004°50'0 0.0
2015-Aug-23 08:32N 43°25' E 004°50'0 0.0
2015-Aug-23 07:32N 43°25' E 004°50'0 0.0
2015-Aug-23 06:32N 43°25' E 004°50'0 0.0
2015-Aug-23 05:32N 43°25' E 004°50'  

Dump ship's entire track history